createdAt,value
2023-05-03T00:04:03.763Z,2.03
2023-05-03T00:08:10.837Z,1.67
2023-05-03T00:12:16.390Z,2.10
2023-05-03T00:16:21.887Z,1.57
2023-05-03T00:20:27.610Z,1.80
2023-05-03T00:24:34.402Z,2.60
2023-05-03T00:28:40.017Z,2.10
2023-05-03T00:32:45.731Z,1.73
2023-05-03T00:36:51.533Z,1.70
2023-05-03T00:40:57.094Z,2.37
2023-05-03T00:45:05.032Z,1.77
2023-05-03T00:49:10.621Z,1.87
2023-05-03T00:53:17.108Z,1.80
2023-05-03T00:57:24.062Z,2.00
2023-05-03T01:01:30.632Z,2.30
2023-05-03T01:06:15.903Z,1.90
2023-05-03T01:10:52.527Z,2.27
2023-05-03T01:15:42.837Z,2.10
2023-05-03T01:19:56.464Z,2.20
2023-05-03T01:24:19.474Z,1.87
2023-05-03T01:28:25.352Z,2.00
2023-05-03T01:32:38.649Z,2.30
2023-05-03T01:36:46.176Z,2.37
2023-05-03T01:40:59.232Z,2.23
2023-05-03T01:45:05.797Z,2.30
2023-05-03T01:49:11.962Z,2.03
2023-05-03T01:53:17.429Z,2.40
2023-05-03T01:57:23.016Z,2.37
2023-05-03T02:01:28.586Z,2.00
2023-05-03T02:05:34.257Z,2.60
2023-05-03T02:09:39.750Z,3.20
2023-05-03T02:13:50.705Z,2.57
2023-05-03T02:17:56.504Z,2.70
2023-05-03T02:22:03.031Z,2.47
2023-05-03T02:26:08.579Z,2.60
2023-05-03T02:30:14.631Z,2.00
2023-05-03T02:34:21.816Z,2.70
2023-05-03T02:38:28.147Z,2.50
2023-05-03T02:42:35.971Z,2.60
2023-05-03T02:46:42.822Z,2.30
2023-05-03T02:50:48.617Z,2.70
2023-05-03T02:54:54.675Z,2.87
2023-05-03T02:59:00.522Z,2.90
2023-05-03T03:03:06.290Z,2.80
2023-05-03T03:07:12.980Z,2.70
2023-05-03T03:11:18.931Z,2.60
2023-05-03T03:15:24.591Z,2.50
2023-05-03T03:19:30.143Z,2.83
2023-05-03T03:23:35.816Z,2.63
2023-05-03T03:27:51.410Z,2.80
2023-05-03T03:31:57.409Z,2.57
2023-05-03T03:36:03.393Z,2.33
2023-05-03T03:40:09.918Z,2.80
2023-05-03T03:44:16.585Z,2.63
2023-05-03T03:48:22.063Z,2.70
2023-05-03T03:52:28.370Z,3.20
2023-05-03T03:56:36.067Z,3.20
2023-05-03T04:00:42.776Z,3.40
2023-05-03T04:05:00.253Z,3.50
2023-05-03T04:09:05.760Z,3.10
2023-05-03T04:13:11.473Z,3.30
2023-05-03T04:17:17.060Z,2.60
2023-05-03T04:21:22.597Z,3.43
2023-05-03T04:25:28.088Z,2.90
2023-05-03T04:29:33.586Z,3.33
2023-05-03T04:33:42.484Z,3.03
2023-05-03T04:37:48.118Z,3.17
2023-05-03T04:41:53.757Z,2.60
2023-05-03T04:45:59.290Z,3.10
2023-05-03T04:50:05.979Z,3.53
2023-05-03T04:54:11.779Z,3.20
2023-05-03T04:58:17.304Z,3.20
2023-05-03T05:02:24.485Z,3.23
2023-05-03T05:06:30.188Z,3.33
2023-05-03T05:10:41.635Z,3.67
2023-05-03T05:14:47.222Z,3.20
2023-05-03T05:18:52.734Z,3.50
2023-05-03T05:22:59.153Z,3.57
2023-05-03T05:27:05.179Z,3.23
2023-05-03T05:31:10.808Z,2.40
2023-05-03T05:35:18.891Z,2.70
2023-05-03T05:39:26.200Z,3.30
2023-05-03T05:43:31.820Z,2.67
2023-05-03T05:47:39.595Z,3.63
2023-05-03T05:51:45.310Z,2.43
2023-05-03T05:55:51.091Z,2.87
2023-05-03T05:59:56.706Z,2.60
2023-05-03T06:04:02.205Z,2.47
2023-05-03T06:08:08.392Z,1.90
2023-05-03T06:12:13.934Z,2.60
2023-05-03T06:16:22.391Z,3.07
2023-05-03T06:20:30.356Z,2.13
2023-05-03T06:24:35.963Z,2.47
2023-05-03T06:28:42.994Z,2.30
2023-05-03T06:32:48.869Z,2.23
2023-05-03T06:36:55.324Z,1.90
2023-05-03T06:41:00.846Z,1.77
2023-05-03T06:45:07.656Z,2.20
2023-05-03T06:49:13.147Z,1.70
2023-05-03T06:53:18.780Z,2.10
2023-05-03T06:57:26.014Z,1.90
2023-05-03T07:01:32.752Z,2.00
2023-05-03T07:05:38.308Z,1.87
2023-05-03T07:09:47.155Z,1.77
2023-05-03T07:13:54.186Z,2.20
2023-05-03T07:17:59.856Z,1.57
2023-05-03T07:22:05.614Z,1.53
2023-05-03T07:26:11.435Z,1.90
2023-05-03T07:30:17.338Z,1.67
2023-05-03T07:34:23.945Z,1.63
2023-05-03T07:38:29.885Z,1.70
2023-05-03T07:42:36.074Z,1.77
2023-05-03T07:46:41.624Z,1.57
2023-05-03T07:50:48.158Z,1.80
2023-05-03T07:54:53.814Z,3.90
2023-05-03T07:59:08.171Z,1.93
2023-05-03T08:03:14.670Z,3.00
2023-05-03T08:07:21.074Z,3.20
2023-05-03T08:11:29.257Z,1.73
2023-05-03T08:15:35.198Z,1.77
2023-05-03T08:19:41.822Z,1.60
2023-05-03T08:23:48.745Z,1.60
2023-05-03T08:27:55.162Z,1.80
2023-05-03T08:32:02.385Z,2.20
2023-05-03T08:36:08.376Z,1.53
2023-05-03T08:40:15.581Z,2.73
2023-05-03T08:44:23.825Z,1.60
2023-05-03T08:48:31.084Z,2.00
2023-05-03T08:52:37.626Z,1.67
2023-05-03T08:56:44.683Z,1.40
2023-05-03T09:00:50.241Z,1.10
2023-05-03T09:04:56.769Z,1.80
2023-05-03T09:09:08.020Z,1.73
2023-05-03T09:13:13.640Z,1.60
2023-05-03T09:17:23.629Z,1.80
2023-05-03T09:21:29.835Z,1.30
2023-05-03T09:25:51.580Z,1.40
2023-05-03T09:29:57.165Z,1.40
2023-05-03T09:34:05.071Z,1.43
2023-05-03T09:38:31.910Z,1.43
2023-05-03T09:42:38.159Z,1.20
2023-05-03T09:47:04.627Z,1.40
2023-05-03T09:51:12.849Z,1.50
2023-05-03T09:55:19.457Z,1.53
2023-05-03T09:59:25.068Z,1.40
2023-05-03T10:03:50.617Z,1.87
2023-05-03T10:08:00.632Z,1.40
2023-05-03T10:12:21.636Z,1.67
2023-05-03T10:16:42.149Z,1.47
2023-05-03T10:20:58.530Z,1.50
2023-05-03T10:25:04.647Z,1.77
2023-05-03T10:29:34.470Z,1.47
2023-05-03T10:33:40.142Z,1.57
2023-05-03T10:37:48.882Z,2.37
2023-05-03T10:42:08.811Z,1.77
2023-05-03T10:46:33.261Z,1.60
2023-05-03T10:50:44.827Z,2.00
2023-05-03T10:54:51.111Z,1.77
2023-05-03T10:58:59.021Z,1.33
2023-05-03T11:03:18.636Z,2.33
2023-05-03T11:07:24.698Z,1.90
2023-05-03T11:11:32.997Z,2.00
2023-05-03T11:15:40.831Z,1.80
2023-05-03T11:19:46.823Z,1.93
2023-05-03T11:23:53.452Z,1.60
2023-05-03T11:28:04.312Z,1.80
2023-05-03T11:32:10.591Z,1.77
2023-05-03T11:36:16.701Z,1.57
2023-05-03T11:40:23.522Z,1.80
2023-05-03T11:44:29.269Z,1.50
2023-05-03T11:48:34.991Z,1.63
2023-05-03T11:52:47.117Z,1.63
2023-05-03T11:57:08.110Z,1.80
2023-05-03T12:01:14.766Z,1.83
2023-05-03T12:05:23.282Z,1.63
2023-05-03T12:09:29.706Z,1.57
2023-05-03T12:13:39.229Z,1.40
2023-05-03T12:17:48.913Z,1.53
2023-05-03T12:22:17.931Z,1.90
2023-05-03T12:26:22.321Z,1.47
2023-05-03T12:30:29.064Z,1.63
2023-05-03T12:34:42.563Z,1.97
2023-05-03T12:42:56.823Z,1.63
2023-05-03T12:47:04.119Z,2.37
2023-05-03T12:55:19.382Z,1.70
2023-05-03T13:03:42.936Z,2.20
2023-05-03T13:07:55.705Z,1.60
2023-05-03T13:12:03.488Z,1.83
2023-05-03T13:16:10.638Z,1.77
2023-05-03T13:20:16.179Z,1.60
2023-05-03T13:24:21.771Z,1.50
2023-05-03T13:28:28.034Z,1.80
2023-05-03T13:32:34.167Z,1.70
2023-05-03T13:36:39.845Z,1.20
2023-05-03T13:40:45.500Z,1.60
2023-05-03T13:44:51.256Z,1.70
2023-05-03T13:48:56.996Z,1.47
2023-05-03T13:53:06.693Z,1.90
2023-05-03T13:57:12.210Z,2.80
2023-05-03T14:01:18.271Z,1.90
2023-05-03T14:05:23.974Z,1.30
2023-05-03T14:13:56.919Z,1.77
2023-05-03T14:18:05.659Z,2.20
2023-05-03T14:22:11.814Z,2.10
2023-05-03T14:26:17.939Z,1.90
2023-05-03T14:30:23.991Z,1.90
2023-05-03T14:34:29.652Z,1.70
2023-05-03T14:38:36.400Z,1.97
2023-05-03T14:42:42.179Z,1.73
2023-05-03T14:46:47.657Z,1.90
2023-05-03T14:50:54.402Z,1.70
2023-05-03T14:54:59.923Z,1.80
2023-05-03T14:59:05.628Z,1.70
2023-05-03T15:03:12.328Z,1.90
2023-05-03T15:07:17.996Z,1.70
2023-05-03T15:11:23.826Z,1.93
2023-05-03T15:15:29.467Z,1.40
2023-05-03T15:19:34.986Z,1.80
2023-05-03T15:23:41.849Z,2.00
2023-05-03T15:27:47.379Z,1.70
2023-05-03T15:31:53.061Z,1.90
2023-05-03T15:35:58.549Z,1.80
2023-05-03T15:40:06.763Z,1.60
2023-05-03T15:44:14.790Z,1.77
2023-05-03T15:48:20.609Z,1.70
2023-05-03T15:52:26.148Z,1.67
2023-05-03T15:56:32.820Z,1.90
2023-05-03T16:00:39.130Z,1.80
2023-05-03T16:04:44.724Z,1.90
2023-05-03T16:08:50.236Z,2.20
2023-05-03T16:12:56.315Z,1.70
2023-05-03T16:17:02.410Z,2.97
2023-05-03T16:21:08.028Z,1.83
2023-05-03T16:25:13.687Z,2.77
2023-05-03T16:29:19.242Z,2.17
2023-05-03T16:33:24.791Z,2.27
2023-05-03T16:37:37.803Z,2.07
2023-05-03T16:41:43.551Z,1.87
2023-05-03T16:46:02.358Z,2.20
2023-05-03T16:50:09.096Z,2.10
2023-05-03T16:54:16.865Z,2.10
2023-05-03T16:58:22.503Z,1.73
2023-05-03T17:02:28.055Z,1.73
2023-05-03T17:06:33.803Z,2.00
2023-05-03T17:10:39.430Z,2.20
2023-05-03T17:14:45.911Z,1.90
2023-05-03T17:18:51.651Z,1.63
2023-05-03T17:22:57.744Z,2.03
2023-05-03T17:27:03.258Z,2.30
2023-05-03T17:31:08.910Z,2.37
2023-05-03T17:35:14.561Z,1.87
2023-05-03T17:39:20.164Z,2.77
2023-05-03T17:43:26.384Z,1.90
2023-05-03T17:47:32.437Z,2.20
2023-05-03T17:51:40.490Z,2.50
2023-05-03T17:55:46.179Z,5.83
2023-05-03T17:59:52.021Z,4.83
2023-05-03T18:03:57.714Z,4.43
2023-05-03T18:08:04.126Z,2.13
2023-05-03T18:12:09.719Z,2.37
2023-05-03T18:16:15.546Z,2.30
2023-05-03T18:20:21.333Z,2.03
2023-05-03T18:24:27.075Z,2.27
2023-05-03T18:28:33.128Z,2.70
2023-05-03T18:32:38.849Z,2.37
2023-05-03T18:36:44.381Z,2.57
2023-05-03T18:40:50.472Z,2.40
2023-05-03T18:44:55.972Z,2.40
2023-05-03T18:49:03.409Z,3.20
2023-05-03T18:53:10.709Z,3.50
2023-05-03T18:57:16.762Z,3.07
2023-05-03T19:01:22.660Z,2.20
2023-05-03T19:05:28.287Z,3.20
2023-05-03T19:09:33.855Z,2.90
2023-05-03T19:13:40.019Z,3.17
2023-05-03T19:17:46.818Z,3.40
2023-05-03T19:21:52.378Z,3.90
2023-05-03T19:25:58.117Z,2.47
2023-05-03T19:30:04.201Z,2.63
2023-05-03T19:34:11.390Z,2.57
2023-05-03T19:38:16.915Z,2.27
2023-05-03T19:42:22.657Z,2.13
2023-05-03T19:46:28.780Z,2.40
2023-05-03T19:50:36.191Z,2.93
2023-05-03T19:54:41.690Z,2.60
2023-05-03T19:58:47.747Z,2.80
2023-05-03T20:02:53.741Z,2.47
2023-05-03T20:06:59.706Z,2.03
2023-05-03T20:11:05.737Z,2.83
2023-05-03T20:15:12.256Z,2.17
2023-05-03T20:19:17.906Z,2.60
2023-05-03T20:23:23.584Z,2.63
2023-05-03T20:27:29.152Z,2.70
2023-05-03T20:31:34.847Z,2.10
2023-05-03T20:35:40.605Z,2.20
2023-05-03T20:39:46.089Z,2.40
2023-05-03T20:43:53.526Z,2.77
2023-05-03T20:47:59.118Z,2.30
2023-05-03T20:52:05.023Z,2.70
2023-05-03T20:56:12.499Z,3.83
2023-05-03T21:00:18.252Z,4.33
2023-05-03T21:04:27.055Z,3.47
2023-05-03T21:08:32.889Z,2.70
2023-05-03T21:12:38.619Z,2.60
2023-05-03T21:16:44.735Z,2.20
2023-05-03T21:20:50.510Z,2.40
2023-05-03T21:24:56.015Z,2.20
2023-05-03T21:29:01.808Z,2.60
2023-05-03T21:33:07.799Z,2.03
2023-05-03T21:37:13.408Z,2.07
2023-05-03T21:41:19.942Z,2.23
2023-05-03T21:45:25.633Z,2.20
2023-05-03T21:49:31.297Z,2.00
2023-05-03T21:53:37.052Z,2.53
2023-05-03T21:57:42.590Z,2.80
2023-05-03T22:01:48.859Z,2.83
2023-05-03T22:05:54.353Z,3.20
2023-05-03T22:09:59.907Z,2.87
2023-05-03T22:14:08.497Z,2.70
2023-05-03T22:18:14.927Z,2.80
2023-05-03T22:22:21.136Z,3.33
2023-05-03T22:26:27.084Z,2.43
2023-05-03T22:30:32.580Z,3.13
2023-05-03T22:34:38.184Z,2.60
2023-05-03T22:38:43.925Z,2.83
2023-05-03T22:42:49.491Z,2.80
2023-05-03T22:46:54.967Z,2.83
2023-05-03T22:51:00.818Z,2.60
2023-05-03T22:55:08.048Z,2.47
2023-05-03T22:59:13.540Z,2.37
2023-05-03T23:03:20.082Z,2.60
2023-05-03T23:07:26.764Z,2.30
2023-05-03T23:11:32.888Z,2.57
2023-05-03T23:15:38.969Z,2.50
2023-05-03T23:19:44.592Z,2.50
2023-05-03T23:23:50.086Z,2.90
2023-05-03T23:27:56.031Z,2.20
2023-05-03T23:32:03.426Z,2.40
2023-05-03T23:36:09.741Z,2.50
2023-05-03T23:40:15.288Z,2.97
2023-05-03T23:44:21.383Z,2.87
2023-05-03T23:48:26.886Z,2.83
2023-05-03T23:52:32.586Z,3.10
2023-05-03T23:56:38.117Z,2.63
